Latest Coastal Weather Observations for Cape Sorell

IDT60701

Issued at 8:02 am EST Saturday 25 June 2016 (issued every 10 minutes, with the page automatically refreshed every 10 minutes)

About coastal observations | Map of coastal stations | Coastal observations for TAS | Marine services | Other Formats
Station Details ID: 097000 Name: CAPE SORELL Lat: -42.20 Lon: 145.17 Height: 19.3 m
Data from the previous 72 hours. | See also: Recent months at Cape Sorell
Date/Time
EST
Temp

°C
Wind Pressure Rain
since 9am
mm
Weather Cloud Vis
km
Sea
Height
m
Swell
Dir
 
Speed
knots
Gust
knots
hPa Trend Height
m
Period
s
Dir
25/08:00am 9.1 SSW 8 12 1017.9 - 4.2 - - - - - - -
25/07:30am 9.0 SW 11 15 1017.7 - 4.2 - - - - - - -
25/07:00am 9.0 SW 13 15 1017.1 - 4.2 - - - - - - -
25/06:30am 8.7 SW 14 18 1016.7 - 4.2 - - - - - - -
25/06:00am 8.6 SW 14 19 1016.6 - 4.2 - - - - - - -
25/05:30am 7.7 SW 15 19 1016.4 - 4.2 - - - - - - -
25/05:02am 7.8 SW 22 32 1015.9 - 4.2 - - - - - - -
25/05:00am 7.9 SW 23 32 1015.8 - 4.2 - - - - - - -
25/04:51am 8.6 SW 16 28 1015.7 - 4.0 - - - - - - -
25/04:30am 8.4 SW 20 24 1015.4 - 4.0 - - - - - - -
25/04:00am 8.1 SW 18 21 1015.3 - 4.0 - - - - - - -
25/03:30am 7.7 SW 21 25 1015.0 - 4.0 - - - - - - -
25/03:00am 7.6 SW 19 23 1014.8 - 4.0 Recent precip. - - - - - -
25/02:30am 7.3 SW 21 25 1014.6 - 4.0 - - - - - - -
25/02:08am 7.0 SW 17 26 1014.6 - 3.6 - - - - - - -
25/02:06am 6.8 SW 18 26 1014.6 - 3.6 - - - - - - -
25/02:00am 7.0 WSW 22 26 1014.2 - 3.4 - - - - - - -
25/01:49am 7.7 SW 18 27 1014.3 - 3.4 - - - - - - -
25/01:30am 7.5 SSW 17 21 1014.1 - 3.4 - - - - - - -
25/01:00am 8.7 SW 17 29 1013.5 - 3.0 - - - - - - -
25/12:30am 8.3 SW 17 21 1013.2 - 3.0 - - - - - - -
25/12:00am 8.3 SW 18 20 1012.8 - 3.0 - - - - - - -
 
Date/Time
EST
Temp

°C
Wind Pressure Rain
since 9am
mm
Weather Cloud Vis
km
Sea
Height
m
Swell
Dir
 
Speed
knots
Gust
knots
hPa Trend Height
m
Period
s
Dir
24/11:30pm 8.1 SW 20 23 1012.6 - 3.0 - - - - - - -
24/11:07pm 8.1 SSW 18 24 1012.6 - 3.0 - - - - - - -
24/11:00pm 8.2 SSW 18 26 1012.6 - 3.0 - - - - - - -
24/10:35pm 8.7 SSW 16 25 1012.1 - 3.0 - - - - - - -
24/10:30pm 8.7 S 14 20 1012.2 - 3.0 - - - - - - -
24/10:26pm 8.6 S 15 23 1012.3 - 3.0 - - - - - - -
24/10:00pm 8.6 SW 20 25 1011.6 - 3.0 - - - - - - -
24/09:30pm 8.4 SSW 20 24 1011.1 - 3.0 - - - - - - -
24/09:00pm 8.3 SW 20 24 1010.3 - 3.0 - - - - - - -
24/08:30pm 8.0 SW 16 20 1010.1 - 3.0 - - - - - - -
24/08:00pm 7.9 SW 19 23 1009.4 - 3.0 - - - - - - -
24/07:30pm 8.0 SW 21 26 1008.8 - 3.0 - - - - - - -
24/07:00pm 7.9 SW 21 26 1008.2 - 3.0 - - - - - - -
24/06:30pm 7.5 SW 19 22 1007.8 - 3.0 - - - - - - -
24/06:00pm 7.1 SW 20 24 1007.1 - 3.0 - - - - - - -
24/05:30pm 6.6 SW 19 23 1006.4 - 3.0 - - - - - - -
24/05:00pm 6.7 SW 20 25 1005.4 - 3.0 - - - - - - -
24/04:30pm 6.5 SSE 11 28 1004.7 - 2.6 - - - - - - -
24/04:29pm 6.7 SSE 10 27 1004.7 - 2.4 - - - - - - -
24/04:00pm 6.0 E 4 6 1004.4 - 2.4 - - - - - - -
24/03:30pm 5.8 E 5 8 1003.6 - 2.4 - - - - - - -
24/03:00pm 5.9 E 6 9 1003.1 - 2.4 - - - - - - -
24/02:30pm 6.0 ESE 8 11 1002.2 - 2.4 - - - - - - -
24/02:00pm 7.7 SSW 15 17 1001.4 - 2.4 - - - - - - -
24/01:30pm 7.1 SW 16 23 1000.9 - 2.4 - - - - - - -
24/01:26pm 6.8 SW 9 23 1000.9 - 2.4 - - - - - - -
24/01:00pm 6.2 NE 10 12 1000.7 - 2.4 - - - - - - -
24/12:30pm 6.5 NE 10 11 1000.6 - 2.4 - - - - - - -
24/12:00pm 5.7 ENE 7 10 1000.5 - 2.4 Recent precip. - - - - - -
24/11:30am 5.2 NNW 6 11 1000.4 - 2.2 - - - - - - -
24/11:00am 5.4 NNE 10 12 999.6 - 1.0 - - - - - - -
24/10:30am 5.5 NNE 11 14 999.0 - 0.8 - - - - - - -
24/10:00am 5.4 N 11 17 999.1 - 0.6 - - - - - - -
24/09:30am 5.2 NE 16 19 997.8 - 0.0 - - - - - - -
24/09:00am 5.2 NE 17 19 997.3 - 15.4 Rain - - - - - -
24/08:30am 5.4 NE 15 18 996.9 - 15.2 - - - - - - -
24/08:00am 4.8 ENE 8 9 997.4 - 14.4 - - - - - - -
24/07:30am 5.0 ENE 8 11 996.4 - 13.2 - - - - - - -
24/07:00am 6.0 N 7 10 996.1 - 13.2 - - - - - - -
24/06:30am 6.6 W 7 19 995.8 - 11.6 - - - - - - -
24/06:00am 6.1 NNW 6 8 995.4 - 11.4 - - - - - - -
24/05:30am 5.5 NW 4 6 994.7 - 11.4 - - - - - - -
24/05:00am 5.0 WSW 18 25 994.8 - 11.4 - - - - - - -
24/04:30am 5.8 WSW 16 20 994.6 - 10.0 - - - - - - -
24/04:00am 6.3 SW 18 24 993.9 - 9.2 - - - - - - -
24/03:35am 7.6 W 19 31 993.1 - 8.8 - - - - - - -
24/03:30am 7.4 WNW 18 23 993.4 - 8.8 - - - - - - -
24/03:00am 7.4 NW 15 25 993.4 - 8.0 Recent precip. - - - - - -
24/02:30am 7.1 NW 13 19 993.6 - 7.2 - - - - - - -
24/02:11am 7.7 W 17 28 993.2 - 6.6 - - - - - - -
24/02:00am 8.4 WSW 15 19 992.9 - 6.6 - - - - - - -
24/01:30am 8.7 WNW 12 15 993.1 - 6.6 - - - - - - -
24/01:00am 8.8 W 14 20 993.2 - 6.6 - - - - - - -
24/12:30am 8.6 WNW 13 17 992.9 - 6.6 - - - - - - -
24/12:00am 8.7 WNW 14 20 993.0 - 6.6 - - - - - - -
 
Date/Time
EST
Temp

°C
Wind Pressure Rain
since 9am
mm
Weather Cloud Vis
km
Sea
Height
m
Swell
Dir
 
Speed
knots
Gust
knots
hPa Trend Height
m
Period
s
Dir
23/11:30pm 8.5 WNW 14 21 993.3 - 6.6 - - - - - - -
23/11:00pm 8.7 W 16 23 993.0 - 6.6 - - - - - - -
23/10:41pm 8.6 W 19 25 992.8 - 6.6 - - - - - - -
23/10:30pm 8.9 WSW 21 28 992.5 - 6.6 - - - - - - -
23/10:19pm 9.4 W 20 28 992.2 - 6.6 - - - - - - -
23/10:00pm 8.9 W 20 26 992.4 - 6.6 - - - - - - -
23/09:55pm 8.9 W 20 29 992.4 - 6.6 - - - - - - -
23/09:47pm 9.0 W 17 25 992.2 - 6.6 - - - - - - -
23/09:30pm 8.8 WNW 17 25 992.4 - 6.6 - - - - - - -
23/09:00pm 8.6 W 12 21 992.5 - 6.4 - - - - - - -
23/08:30pm 7.7 NNW 13 19 992.4 - 6.4 - - - - - - -
23/08:00pm 7.3 NW 9 14 992.4 - 6.4 - - - - - - -
23/07:30pm 6.9 WNW 7 9 992.2 - 6.4 - - - - - - -
23/07:00pm 7.4 WSW 15 22 991.5 - 6.4 - - - - - - -
23/06:52pm 7.6 WSW 14 22 991.3 - 6.4 - - - - - - -
23/06:30pm 7.3 N 7 11 991.7 - 6.4 - - - - - - -
23/06:00pm 6.3 WNW 6 10 991.3 - 6.4 Rain - - - - - -
23/05:30pm 7.1 SW 8 11 990.9 - 4.8 - - - - - - -
23/05:00pm 7.5 NNW 9 12 990.3 - 4.4 - - - - - - -
23/04:30pm 7.2 ENE 1 2 990.4 - 4.4 - - - - - - -
23/04:00pm 7.3 W 3 8 990.6 - 4.0 - - - - - - -
23/03:30pm 7.5 WNW 12 22 990.8 - 3.6 - - - - - - -
23/03:00pm 8.2 NW 5 10 990.2 - 3.4 Recent precip. - - - - - -
23/02:30pm 8.2 NW 10 15 990.3 - 3.2 - - - - - - -
23/02:00pm 8.5 NW 7 12 990.5 - 2.6 - - - - - - -
23/01:30pm 8.3 WNW 8 13 990.2 - 2.6 - - - - - - -
23/01:00pm 7.8 NW 9 14 990.5 - 2.4 - - - - - - -
23/12:54pm 7.4 W 12 21 991.2 - 2.4 - - - - - - -
23/12:39pm 8.4 WNW 19 33 990.9 - 2.0 - - - - - - -
23/12:34pm 8.5 WNW 14 25 991.2 - 2.0 - - - - - - -
23/12:30pm 8.3 NW 11 18 991.3 - 2.0 - - - - - - -
23/12:17pm 7.8 WNW 20 30 991.3 - 1.8 - - - - - - -
23/12:13pm 7.8 WNW 20 31 991.3 - 1.6 - - - - - - -
23/12:00pm 8.2 W 20 34 991.6 - 1.4 Rain - - - - - -
23/11:53am 8.6 WNW 17 34 991.5 - 1.0 - - - - - - -
23/11:50am 10.0 WNW 15 27 992.0 - 0.8 - - - - - - -
23/11:30am 9.2 NNW 11 17 991.9 - 0.8 - - - - - - -
23/11:14am 9.7 NNW 16 29 992.0 - 0.2 - - - - - - -
23/11:00am 10.5 NNW 13 17 992.1 - 0.0 - - - - - - -
23/10:30am 10.6 NNW 13 17 992.2 - 0.0 - - - - - - -
23/10:00am 10.5 NNW 11 15 992.0 - 0.0 - - - - - - -
23/09:30am 9.8 NW 9 15 992.1 - 0.0 - - - - - - -
23/09:00am 9.8 W 14 19 992.8 - 8.2 - - - - - - -
23/08:30am 9.3 W 20 26 992.7 - 8.2 - - - - - - -
23/08:00am 9.7 WSW 22 29 992.6 - 8.2 - - - - - - -
23/07:35am 9.7 WNW 21 32 992.1 - 7.8 - - - - - - -
23/07:31am 10.4 WNW 20 30 992.5 - 7.6 - - - - - - -
23/07:30am 10.4 WNW 20 26 992.5 - 7.6 - - - - - - -
23/07:00am 10.3 W 16 22 992.1 - 7.2 - - - - - - -
23/06:30am 10.9 WNW 19 25 991.9 - 6.6 - - - - - - -
23/06:00am 10.6 WNW 18 25 991.8 - 6.6 Rain - - - - - -
23/05:55am 10.8 WNW 18 28 991.8 - 6.6 - - - - - - -
23/05:49am 11.5 NW 19 28 991.6 - 5.8 - - - - - - -
23/05:30am 12.0 NW 17 24 991.8 - 5.2 - - - - - - -
23/05:00am 11.8 NW 18 25 991.9 - 5.2 - - - - - - -
23/04:30am 11.7 NW 19 28 992.0 - 5.2 - - - - - - -
23/04:25am 11.5 NW 19 30 992.0 - 5.2 - - - - - - -
23/04:00am 11.4 NW 19 26 992.3 - 5.2 - - - - - - -
23/03:30am 11.3 NNW 23 30 992.4 - 5.2 - - - - - - -
23/03:10am 11.7 NW 24 35 992.9 - 5.2 - - - - - - -
23/03:00am 11.0 NW 27 40 992.7 - 4.4 Rain - - - - - -
23/02:54am 10.6 NNW 28 40 992.9 - 4.2 - - - - - - -
23/02:30am 12.3 N 26 37 991.7 - 1.8 - - - - - - -
23/02:26am 12.3 N 25 37 991.9 - 1.8 - - - - - - -
23/02:00am 11.9 N 27 32 992.3 - 1.8 - - - - - - -
23/01:30am 12.1 N 26 33 993.4 - 1.8 - - - - - - -
23/01:00am 10.9 N 25 31 994.4 - 1.8 - - - - - - -
23/12:30am 11.0 N 25 31 994.7 - 1.8 - - - - - - -
23/12:00am 10.5 N 22 26 995.3 - 1.8 Recent precip. - - - - - -
 
Date/Time
EST
Temp

°C
Wind Pressure Rain
since 9am
mm
Weather Cloud Vis
km
Sea
Height
m
Swell
Dir
 
Speed
knots
Gust
knots
hPa Trend Height
m
Period
s
Dir
22/11:30pm 10.3 N 19 24 996.0 - 1.8 - - - - - - -
22/11:20pm 9.7 NNE 21 32 996.3 - 1.8 - - - - - - -
22/11:00pm 10.4 N 19 23 996.4 - 1.2 - - - - - - -
22/10:30pm 11.7 N 23 29 996.6 - 1.0 - - - - - - -
22/10:00pm 11.8 NNW 17 23 997.1 - 1.0 - - - - - - -
22/09:30pm 11.4 NW 16 23 997.5 - 1.0 - - - - - - -
22/09:00pm 11.2 NW 16 22 997.7 - 1.0 - - - - - - -
22/08:30pm 11.0 WNW 19 27 998.1 - 1.0 - - - - - - -
22/08:00pm 11.1 WNW 19 26 997.7 - 1.0 - - - - - - -
22/07:30pm 10.9 W 17 24 997.3 - 1.0 - - - - - - -
22/07:00pm 10.9 W 20 27 997.0 - 1.0 - - - - - - -
22/06:30pm 10.3 W 21 32 996.6 - 1.0 - - - - - - -
22/06:07pm 10.9 W 21 36 996.2 - 1.0 - - - - - - -
22/06:00pm 10.7 W 21 29 996.3 - 1.0 - - - - - - -
22/05:42pm 10.4 W 24 35 995.8 - 1.0 - - - - - - -
22/05:30pm 9.9 W 25 32 995.8 - 1.0 - - - - - - -
22/05:00pm 10.9 WSW 25 36 995.2 - 1.0 - - - - - - -
22/04:54pm 10.5 WSW 25 36 995.0 - 1.0 - - - - - - -
22/04:30pm 10.5 WSW 28 36 994.8 - 1.0 - - - - - - -
22/04:17pm 10.1 WSW 24 36 994.6 - 1.0 - - - - - - -
22/04:00pm 9.5 WSW 27 34 994.8 - 1.0 - - - - - - -
22/03:44pm 10.3 WSW 30 42 994.1 - 1.0 - - - - - - -
22/03:30pm 9.4 WSW 32 43 994.4 - 1.0 - - - - - - -
22/03:28pm 9.4 WSW 34 48 994.4 - 1.0 - - - - - - -
22/03:25pm 9.0 WSW 38 48 994.1 - 1.0 - - - - - - -
22/03:16pm 8.4 W 30 47 993.6 - 1.0 - - - - - - -
22/03:14pm 9.5 W 26 45 993.9 - 1.0 - - - - - - -
22/03:02pm 8.6 W 24 35 994.0 - 1.0 - - - - - - -
22/03:00pm 9.0 W 24 30 994.1 - 1.0 Recent precip. - - - - - -
22/02:40pm 10.9 WSW 30 42 992.9 - 0.6 - - - - - - -
22/02:30pm 10.5 WSW 31 41 992.8 - 0.6 - - - - - - -
22/02:05pm 10.7 W 30 41 992.8 - 0.6 - - - - - - -
22/02:00pm 10.7 WSW 31 41 992.4 - 0.6 - - - - - - -
22/01:33pm 10.3 WSW 32 47 991.6 - 0.6 - - - - - - -
22/01:30pm 9.9 W 31 40 991.9 - 0.6 - - - - - - -
22/01:09pm 10.0 W 32 53 991.3 - 0.4 - - - - - - -
22/01:00pm 11.0 W 29 40 991.7 - 0.4 - - - - - - -
22/12:59pm 11.0 W 28 40 991.8 - 0.4 - - - - - - -
22/12:30pm 10.2 WSW 35 47 990.9 - 0.4 - - - - - - -
22/12:00pm 10.8 W 30 47 990.4 - 0.4 Recent precip. - - - - - -
22/11:30am 11.6 WNW 25 38 990.8 - 0.4 - - - - - - -
22/11:13am 11.1 WNW 24 37 990.7 - 0.4 - - - - - - -
22/11:00am 10.7 WNW 23 30 991.2 - 0.2 - - - - - - -
22/10:30am 12.0 W 22 32 991.1 - 0.0 - - - - - - -
22/10:00am 10.7 W 24 35 991.4 - 0.0 - - - - - - -
22/09:32am 11.9 W 21 37 990.8 - 0.0 - - - - - - -
22/09:30am 11.8 W 21 30 991.0 - 0.0 - - - - - - -
22/09:00am 11.3 WSW 29 40 990.2 - 6.2 Rain - - - - - -
22/08:30am 10.9 WSW 27 43 989.3 - 6.0 - - - - - - -

Other Formats:

Comma delimited format used in spreadsheet applications
http://www.bom.gov.au/fwo/IDT60701/IDT60701.94974.axf

JavaScript Object Notation format (JSON) in row-major order
http://www.bom.gov.au/fwo/IDT60701/IDT60701.94974.json